createdAt,value
2023-01-04T00:00:48.942Z,41.42
2023-01-04T00:03:18.376Z,40.83
2023-01-04T00:05:47.646Z,36.42
2023-01-04T00:08:16.752Z,35.53
2023-01-04T00:10:46.117Z,34.10
2023-01-04T00:13:16.725Z,39.50
2023-01-04T00:15:45.912Z,37.95
2023-01-04T00:18:15.435Z,36.90
2023-01-04T00:20:44.897Z,45.35
2023-01-04T00:23:14.064Z,40.88
2023-01-04T00:25:43.524Z,40.90
2023-01-04T00:28:12.616Z,39.20
2023-01-04T00:30:44.059Z,42.88
2023-01-04T00:33:13.519Z,38.65
2023-01-04T00:35:46.160Z,37.42
2023-01-04T00:38:15.638Z,40.53
2023-01-04T00:40:44.891Z,40.55
2023-01-04T00:43:14.298Z,39.58
2023-01-04T00:45:45.953Z,40.35
2023-01-04T00:48:15.164Z,40.30
2023-01-04T00:50:46.115Z,35.90
2023-01-04T00:53:19.060Z,38.65
2023-01-04T00:55:50.049Z,46.40
2023-01-04T00:58:19.270Z,47.00
2023-01-04T01:00:53.070Z,40.78
2023-01-04T01:03:22.499Z,45.40
2023-01-04T01:05:51.791Z,45.70
2023-01-04T01:08:26.763Z,37.97
2023-01-04T01:10:56.786Z,40.67
2023-01-04T01:13:27.826Z,34.17
2023-01-04T01:15:58.548Z,33.13
2023-01-04T01:18:27.805Z,34.90
2023-01-04T01:20:56.889Z,34.33
2023-01-04T01:23:25.980Z,36.90
2023-01-04T01:25:55.232Z,32.45
2023-01-04T01:28:24.422Z,34.45
2023-01-04T01:30:54.736Z,33.47
2023-01-04T01:33:25.268Z,31.42
2023-01-04T01:35:54.407Z,30.90
2023-01-04T01:38:23.497Z,31.10
2023-01-04T01:40:52.959Z,35.03
2023-01-04T01:43:25.559Z,33.78
2023-01-04T01:45:58.021Z,30.90
2023-01-04T01:48:30.996Z,31.88
2023-01-04T01:51:04.763Z,30.65
2023-01-04T01:53:42.173Z,32.35
2023-01-04T01:56:11.978Z,34.88
2023-01-04T01:58:45.023Z,32.25
2023-01-04T02:01:14.788Z,34.15
2023-01-04T02:03:45.964Z,33.95
2023-01-04T02:06:22.740Z,31.90
2023-01-04T02:08:52.636Z,34.53
2023-01-04T02:11:21.800Z,33.97
2023-01-04T02:14:09.305Z,32.65
2023-01-04T02:16:56.416Z,34.92
2023-01-04T02:20:03.876Z,34.15
2023-01-04T02:23:16.851Z,37.92
2023-01-04T02:26:59.168Z,39.50
2023-01-04T02:30:33.760Z,40.08
2023-01-04T02:33:18.174Z,37.80
2023-01-04T02:36:00.579Z,38.15
2023-01-04T02:38:39.823Z,35.47
2023-01-04T02:41:20.334Z,37.03
2023-01-04T02:44:14.464Z,35.25
2023-01-04T02:46:48.034Z,33.70
2023-01-04T02:49:36.325Z,37.42
2023-01-04T02:52:05.577Z,37.30
2023-01-04T02:54:35.181Z,35.45
2023-01-04T02:57:27.005Z,38.05
2023-01-04T03:00:21.198Z,38.75
2023-01-04T03:03:27.050Z,38.30
2023-01-04T03:06:16.596Z,36.65
2023-01-04T03:08:57.672Z,36.88
2023-01-04T03:11:54.867Z,33.90
2023-01-04T03:14:33.375Z,30.67
2023-01-04T03:17:05.960Z,31.00
2023-01-04T03:19:55.508Z,29.38
2023-01-04T03:22:52.736Z,29.10
2023-01-04T03:25:53.933Z,28.05
2023-01-04T03:28:44.286Z,27.00
2023-01-04T03:31:38.436Z,28.92
2023-01-04T03:34:25.161Z,30.15
2023-01-04T03:37:08.639Z,28.23
2023-01-04T03:40:10.680Z,25.75
2023-01-04T03:43:06.150Z,27.35
2023-01-04T03:46:01.875Z,26.92
2023-01-04T03:48:37.913Z,26.63
2023-01-04T03:51:15.706Z,24.27
2023-01-04T03:53:54.695Z,24.20
2023-01-04T03:56:26.447Z,27.05
2023-01-04T03:58:55.932Z,29.00
2023-01-04T04:01:28.339Z,26.80
2023-01-04T04:04:15.352Z,25.90
2023-01-04T04:07:01.926Z,27.77
2023-01-04T04:09:31.142Z,27.48
2023-01-04T04:12:01.653Z,27.42
2023-01-04T04:14:31.093Z,24.35
2023-01-04T04:17:00.337Z,25.15
2023-01-04T04:19:29.562Z,25.52
2023-01-04T04:21:58.704Z,24.10
2023-01-04T04:24:28.633Z,30.05
2023-01-04T04:26:57.829Z,27.45
2023-01-04T04:29:28.243Z,25.65
2023-01-04T04:31:57.401Z,26.13
2023-01-04T04:34:26.588Z,26.40
2023-01-04T04:36:55.758Z,26.20
2023-01-04T04:39:24.903Z,24.42
2023-01-04T04:41:53.024Z,26.25
2023-01-04T04:44:22.439Z,25.67
2023-01-04T04:46:53.031Z,28.77
2023-01-04T04:49:22.389Z,27.88
2023-01-04T04:51:51.490Z,30.98
2023-01-04T04:54:23.087Z,31.77
2023-01-04T04:56:54.416Z,33.72
2023-01-04T04:59:23.507Z,39.38
2023-01-04T05:01:54.195Z,40.65
2023-01-04T05:04:23.459Z,39.22
2023-01-04T05:06:53.344Z,39.60
2023-01-04T05:09:24.416Z,39.58
2023-01-04T05:12:11.150Z,36.03
2023-01-04T05:14:40.175Z,32.88
2023-01-04T05:17:10.820Z,28.98
2023-01-04T05:19:42.190Z,31.10
2023-01-04T05:22:11.362Z,29.48
2023-01-04T05:24:40.534Z,29.60
2023-01-04T05:27:09.674Z,29.83
2023-01-04T05:29:56.574Z,27.65
2023-01-04T05:32:27.097Z,37.88
2023-01-04T05:34:56.188Z,35.25
2023-01-04T05:37:25.787Z,33.28
2023-01-04T05:39:54.951Z,43.72
2023-01-04T05:42:27.923Z,38.72
2023-01-04T05:44:59.363Z,39.45
2023-01-04T05:47:30.486Z,36.13
2023-01-04T05:49:59.736Z,30.77
2023-01-04T05:52:29.513Z,28.25
2023-01-04T05:54:58.685Z,25.58
2023-01-04T05:57:28.129Z,24.85
2023-01-04T05:59:57.378Z,23.85
2023-01-04T06:02:32.294Z,26.98
2023-01-04T06:05:01.913Z,24.27
2023-01-04T06:07:35.005Z,23.98
2023-01-04T06:10:04.229Z,24.63
2023-01-04T06:12:33.400Z,22.98
2023-01-04T06:15:02.570Z,22.88
2023-01-04T06:17:33.287Z,23.73
2023-01-04T06:20:02.577Z,23.77
2023-01-04T06:22:32.900Z,24.33
2023-01-04T06:25:02.069Z,23.13
2023-01-04T06:27:31.304Z,22.77
2023-01-04T06:30:00.455Z,23.60
2023-01-04T06:32:29.682Z,23.33
2023-01-04T06:35:00.405Z,22.85
2023-01-04T06:37:29.569Z,25.08
2023-01-04T06:39:58.740Z,23.83
2023-01-04T06:42:45.984Z,25.33
2023-01-04T06:45:16.521Z,22.52
2023-01-04T06:47:47.902Z,23.50
2023-01-04T06:50:18.788Z,25.55
2023-01-04T06:52:47.932Z,27.45
2023-01-04T06:55:17.301Z,27.75
2023-01-04T06:57:46.351Z,30.77
2023-01-04T07:00:16.995Z,31.92
2023-01-04T07:03:13.935Z,28.83
2023-01-04T07:05:36.799Z,28.33
2023-01-04T07:08:08.361Z,30.05
2023-01-04T07:10:38.514Z,33.15
2023-01-04T07:13:08.261Z,29.80
2023-01-04T07:15:40.681Z,28.85
2023-01-04T07:18:11.200Z,28.90
2023-01-04T07:20:41.820Z,29.08
2023-01-04T07:23:11.759Z,29.25
2023-01-04T07:25:40.896Z,27.15
2023-01-04T07:28:10.866Z,25.13
2023-01-04T07:30:40.080Z,25.85
2023-01-04T07:33:09.372Z,26.33
2023-01-04T07:35:38.463Z,26.38
2023-01-04T07:38:09.022Z,25.35
2023-01-04T07:40:38.058Z,23.92
2023-01-04T07:43:28.231Z,24.50
2023-01-04T07:45:57.936Z,24.75
2023-01-04T07:48:29.702Z,24.25
2023-01-04T07:50:58.870Z,24.92
2023-01-04T07:53:29.588Z,24.73
2023-01-04T07:55:59.198Z,22.98
2023-01-04T07:58:32.992Z,23.88
2023-01-04T08:01:08.854Z,23.98
2023-01-04T08:03:38.513Z,22.95
2023-01-04T08:06:09.341Z,22.75
2023-01-04T08:08:39.983Z,24.13
2023-01-04T08:11:12.996Z,24.73
2023-01-04T08:13:42.679Z,24.63
2023-01-04T08:16:27.770Z,22.77
2023-01-04T08:18:59.304Z,22.63
2023-01-04T08:21:31.088Z,21.52
2023-01-04T08:24:02.183Z,24.08
2023-01-04T08:26:31.758Z,22.50
2023-01-04T08:29:00.995Z,22.55
2023-01-04T08:31:32.677Z,23.10
2023-01-04T08:34:05.147Z,23.23
2023-01-04T08:36:36.583Z,22.33
2023-01-04T08:39:07.847Z,21.77
2023-01-04T08:44:40.136Z,22.73
2023-01-04T08:47:09.945Z,25.38
2023-01-04T08:49:39.132Z,21.65
2023-01-04T08:52:10.095Z,20.08
2023-01-04T08:54:40.614Z,20.60
2023-01-04T08:57:09.673Z,20.27
2023-01-04T08:59:38.877Z,20.42
2023-01-04T09:02:21.206Z,18.80
2023-01-04T09:04:51.415Z,17.92
2023-01-04T09:07:21.256Z,17.95
2023-01-04T09:09:51.771Z,16.75
2023-01-04T09:12:20.871Z,17.75
2023-01-04T09:14:50.377Z,15.05
2023-01-04T09:17:19.789Z,15.48
2023-01-04T09:19:49.415Z,15.00
2023-01-04T09:22:18.824Z,13.98
2023-01-04T09:24:50.106Z,15.43
2023-01-04T09:27:20.788Z,14.23
2023-01-04T09:29:49.894Z,13.32
2023-01-04T09:32:19.733Z,12.82
2023-01-04T09:34:49.258Z,12.70
2023-01-04T09:37:18.408Z,11.45
2023-01-04T09:39:47.744Z,11.85
2023-01-04T09:42:24.248Z,12.15
2023-01-04T09:47:56.088Z,13.82
2023-01-04T09:50:29.874Z,11.38
2023-01-04T09:53:12.596Z,9.68
2023-01-04T09:55:48.250Z,9.02
2023-01-04T09:58:29.309Z,9.45
2023-01-04T10:01:04.828Z,8.02
2023-01-04T10:03:36.387Z,8.07
2023-01-04T10:06:09.329Z,8.20
2023-01-04T10:08:38.590Z,8.32
2023-01-04T10:11:33.386Z,8.70
2023-01-04T10:14:35.540Z,7.82
2023-01-04T10:17:35.662Z,8.27
2023-01-04T10:21:26.756Z,7.75
2023-01-04T10:26:47.173Z,7.95
2023-01-04T10:29:45.657Z,8.95
2023-01-04T10:32:21.136Z,8.82
2023-01-04T10:34:50.897Z,8.57
2023-01-04T10:37:23.485Z,9.73
2023-01-04T10:39:55.889Z,9.55
2023-01-04T10:42:38.361Z,9.25
2023-01-04T10:45:18.080Z,9.65
2023-01-04T10:48:03.928Z,10.07
2023-01-04T10:50:41.013Z,9.70
2023-01-04T10:53:17.960Z,10.40
2023-01-04T10:56:25.236Z,10.35
2023-01-04T10:58:51.535Z,10.70
2023-01-04T11:01:29.847Z,10.57
2023-01-04T11:04:06.503Z,10.80
2023-01-04T11:06:42.054Z,10.53
2023-01-04T11:09:24.887Z,9.75
2023-01-04T11:11:58.186Z,9.02
2023-01-04T11:14:33.308Z,9.80
2023-01-04T11:17:10.198Z,10.10
2023-01-04T11:19:40.314Z,10.90
2023-01-04T11:22:18.079Z,10.07
2023-01-04T11:25:32.554Z,8.50
2023-01-04T11:27:48.134Z,8.70
2023-01-04T11:30:21.092Z,7.93
2023-01-04T11:32:59.631Z,8.40
2023-01-04T11:35:42.823Z,8.10
2023-01-04T11:38:16.571Z,8.65
2023-01-04T11:40:59.861Z,8.93
2023-01-04T11:43:31.184Z,8.00
2023-01-04T11:46:05.503Z,8.48
2023-01-04T11:48:42.541Z,8.35
2023-01-04T11:51:39.554Z,7.57
2023-01-04T11:54:21.129Z,7.05
2023-01-04T11:57:10.831Z,7.47
2023-01-04T11:59:41.056Z,7.53
2023-01-04T12:05:28.206Z,8.02
2023-01-04T12:07:59.357Z,7.22
2023-01-04T12:10:31.249Z,7.15
2023-01-04T12:13:03.305Z,7.88
2023-01-04T12:15:40.129Z,7.35
2023-01-04T12:18:18.716Z,6.90
2023-01-04T12:20:50.405Z,6.88
2023-01-04T12:23:20.705Z,6.63
2023-01-04T12:25:52.360Z,6.32
2023-01-04T12:28:37.311Z,6.47
2023-01-04T12:31:33.686Z,6.93
2023-01-04T12:34:43.485Z,6.75
2023-01-04T12:37:49.717Z,6.20
2023-01-04T12:40:54.303Z,6.10
2023-01-04T12:43:28.674Z,5.97
2023-01-04T12:47:01.277Z,6.38
2023-01-04T12:50:00.256Z,6.25
2023-01-04T12:55:59.389Z,7.27
2023-01-04T12:59:25.842Z,6.10
2023-01-04T13:02:23.417Z,6.70
2023-01-04T13:05:16.933Z,6.57
2023-01-04T13:07:50.818Z,6.80
2023-01-04T13:10:33.689Z,6.82
2023-01-04T13:13:34.020Z,6.45
2023-01-04T13:16:18.936Z,6.65
2023-01-04T13:18:51.563Z,7.55
2023-01-04T13:21:29.624Z,7.55
2023-01-04T13:24:02.659Z,7.22
2023-01-04T13:26:39.482Z,6.72
2023-01-04T13:29:13.571Z,7.40
2023-01-04T13:31:50.104Z,6.93
2023-01-04T13:34:28.490Z,6.47
2023-01-04T13:37:17.283Z,6.38
2023-01-04T13:39:51.198Z,6.63
2023-01-04T13:42:28.348Z,5.97
2023-01-04T13:46:10.032Z,6.43
2023-01-04T13:48:42.848Z,6.20
2023-01-04T13:51:18.562Z,6.03
2023-01-04T13:53:58.642Z,6.72
2023-01-04T13:56:31.899Z,6.60
2023-01-04T13:59:01.601Z,6.50
2023-01-04T14:01:33.455Z,6.47
2023-01-04T14:04:06.096Z,5.82
2023-01-04T14:06:41.185Z,6.30
2023-01-04T14:09:18.491Z,6.30
2023-01-04T14:12:07.692Z,6.38
2023-01-04T14:14:47.356Z,5.63
2023-01-04T14:17:32.658Z,5.47
2023-01-04T14:20:02.932Z,5.95
2023-01-04T14:22:53.673Z,5.47
2023-01-04T14:25:44.996Z,5.70
2023-01-04T14:28:47.053Z,5.28
2023-01-04T14:31:33.960Z,5.88
2023-01-04T14:34:12.962Z,5.85
2023-01-04T14:36:45.409Z,5.65
2023-01-04T14:39:35.062Z,6.28
2023-01-04T14:42:05.257Z,5.53
2023-01-04T14:44:41.187Z,6.47
2023-01-04T14:47:12.935Z,6.53
2023-01-04T14:49:42.114Z,6.22
2023-01-04T14:52:13.670Z,6.68
2023-01-04T14:54:42.811Z,6.93
2023-01-04T14:57:12.420Z,6.75
2023-01-04T14:59:44.152Z,6.68
2023-01-04T15:02:14.136Z,6.63
2023-01-04T15:04:43.340Z,6.88
2023-01-04T15:07:35.503Z,6.32
2023-01-04T15:10:06.827Z,6.75
2023-01-04T15:12:36.039Z,6.63
2023-01-04T15:15:08.257Z,7.60
2023-01-04T15:17:37.616Z,6.57
2023-01-04T15:20:08.533Z,6.25
2023-01-04T15:22:37.653Z,7.25
2023-01-04T15:25:08.363Z,6.60
2023-01-04T15:27:42.136Z,7.00
2023-01-04T15:30:14.867Z,7.55
2023-01-04T15:32:44.400Z,7.55
2023-01-04T15:35:16.963Z,7.60
2023-01-04T15:37:49.483Z,8.75
2023-01-04T15:40:20.213Z,8.13
2023-01-04T15:43:01.888Z,8.27
2023-01-04T15:45:38.298Z,9.10
2023-01-04T15:48:12.776Z,8.25
2023-01-04T15:50:45.462Z,8.82
2023-01-04T15:53:14.687Z,9.23
2023-01-04T15:55:43.942Z,8.50
2023-01-04T15:58:13.785Z,8.70
2023-01-04T16:00:44.315Z,9.10
2023-01-04T16:03:13.620Z,8.65
2023-01-04T16:05:42.796Z,8.98
2023-01-04T16:08:14.554Z,10.07
2023-01-04T16:10:44.744Z,9.27
2023-01-04T16:13:13.965Z,9.73
2023-01-04T16:15:44.718Z,7.43
2023-01-04T16:18:14.485Z,8.15
2023-01-04T16:20:43.867Z,19.40
2023-01-04T16:23:12.972Z,31.80
2023-01-04T16:25:42.123Z,23.92
2023-01-04T16:28:11.406Z,10.18
2023-01-04T16:30:41.513Z,7.53
2023-01-04T16:33:12.116Z,7.82
2023-01-04T16:35:41.258Z,9.55
2023-01-04T16:38:10.412Z,8.60
2023-01-04T16:40:39.578Z,8.95
2023-01-04T16:43:08.841Z,9.50
2023-01-04T16:45:39.039Z,9.02
2023-01-04T16:48:10.199Z,8.35
2023-01-04T16:50:44.244Z,7.30
2023-01-04T16:53:13.345Z,9.27
2023-01-04T16:55:42.486Z,7.72
2023-01-04T16:58:11.542Z,9.18
2023-01-04T17:00:40.826Z,8.93
2023-01-04T17:03:10.049Z,9.40
2023-01-04T17:05:40.863Z,8.52
2023-01-04T17:08:11.452Z,13.40
2023-01-04T17:10:40.633Z,11.15
2023-01-04T17:13:09.673Z,11.85
2023-01-04T17:15:43.504Z,12.98
2023-01-04T17:18:17.658Z,12.88
2023-01-04T17:20:54.822Z,14.75
2023-01-04T17:23:27.179Z,11.68
2023-01-04T17:26:10.446Z,9.68
2023-01-04T17:28:41.220Z,9.45
2023-01-04T17:31:16.168Z,8.15
2023-01-04T17:33:45.777Z,9.48
2023-01-04T17:36:18.066Z,9.27
2023-01-04T17:38:49.365Z,12.25
2023-01-04T17:41:21.027Z,15.00
2023-01-04T17:43:53.634Z,12.50
2023-01-04T17:46:24.599Z,11.70
2023-01-04T17:49:24.152Z,9.48
2023-01-04T17:51:43.239Z,9.13
2023-01-04T17:54:14.078Z,8.68
2023-01-04T17:56:43.448Z,9.20
2023-01-04T17:59:12.890Z,8.65
2023-01-04T18:01:43.871Z,10.35
2023-01-04T18:04:13.084Z,11.38
2023-01-04T18:06:42.542Z,12.02
2023-01-04T18:09:18.496Z,12.57
2023-01-04T18:11:51.198Z,10.23
2023-01-04T18:14:20.614Z,11.27
2023-01-04T18:16:59.287Z,11.50
2023-01-04T18:19:31.333Z,11.60
2023-01-04T18:22:00.911Z,11.07
2023-01-04T18:24:37.372Z,11.00
2023-01-04T18:27:21.427Z,10.38
2023-01-04T18:29:52.431Z,10.52
2023-01-04T18:32:22.159Z,11.20
2023-01-04T18:34:51.483Z,11.52
2023-01-04T18:37:20.707Z,14.38
2023-01-04T18:39:51.353Z,15.95
2023-01-04T18:42:20.583Z,15.80
2023-01-04T18:44:50.100Z,15.68
2023-01-04T18:47:20.789Z,16.92
2023-01-04T18:49:51.082Z,14.75
2023-01-04T18:52:20.697Z,14.45
2023-01-04T18:54:51.244Z,13.70
2023-01-04T18:57:20.445Z,13.23
2023-01-04T18:59:50.309Z,14.23
2023-01-04T19:02:23.673Z,14.60
2023-01-04T19:04:52.953Z,21.45
2023-01-04T19:07:22.142Z,20.25
2023-01-04T19:09:52.775Z,20.73
2023-01-04T19:12:22.062Z,22.85
2023-01-04T19:14:51.442Z,18.50
2023-01-04T19:17:24.548Z,17.75
2023-01-04T19:19:53.974Z,16.55
2023-01-04T19:22:23.277Z,16.95
2023-01-04T19:24:54.028Z,15.68
2023-01-04T19:27:23.491Z,17.25
2023-01-04T19:29:53.477Z,18.20
2023-01-04T19:32:22.734Z,19.35
2023-01-04T19:34:52.228Z,23.13
2023-01-04T19:37:21.548Z,21.50
2023-01-04T19:39:51.051Z,23.85
2023-01-04T19:42:21.602Z,22.95
2023-01-04T19:44:50.938Z,25.48
2023-01-04T19:47:22.449Z,23.92
2023-01-04T19:49:51.546Z,22.45
2023-01-04T19:52:23.995Z,21.48
2023-01-04T19:54:53.300Z,17.33
2023-01-04T19:57:23.984Z,17.85
2023-01-04T19:59:53.122Z,18.30
2023-01-04T20:02:22.382Z,16.00
2023-01-04T20:04:51.810Z,14.98
2023-01-04T20:07:24.019Z,14.93
2023-01-04T20:09:54.052Z,15.35
2023-01-04T20:12:24.695Z,16.95
2023-01-04T20:14:54.036Z,16.85
2023-01-04T20:17:23.412Z,21.02
2023-01-04T20:19:52.527Z,19.50
2023-01-04T20:22:22.191Z,20.10
2023-01-04T20:24:52.313Z,20.15
2023-01-04T20:27:21.523Z,22.65
2023-01-04T20:29:51.993Z,23.10
2023-01-04T20:32:21.106Z,22.35
2023-01-04T20:34:50.261Z,21.70
2023-01-04T20:37:19.668Z,20.17
2023-01-04T20:39:48.925Z,20.58
2023-01-04T20:42:35.351Z,22.13
2023-01-04T20:45:08.819Z,23.77
2023-01-04T20:47:38.035Z,20.75
2023-01-04T20:50:13.007Z,22.80
2023-01-04T20:52:42.448Z,21.02
2023-01-04T20:55:17.222Z,20.08
2023-01-04T20:57:47.221Z,20.77
2023-01-04T21:00:20.518Z,18.90
2023-01-04T21:02:53.193Z,19.05
2023-01-04T21:05:22.960Z,16.35
2023-01-04T21:07:52.158Z,18.52
2023-01-04T21:10:22.349Z,15.93
2023-01-04T21:12:51.808Z,15.52
2023-01-04T21:15:23.324Z,16.10
2023-01-04T21:17:53.802Z,17.17
2023-01-04T21:20:24.913Z,17.50
2023-01-04T21:22:56.051Z,19.30
2023-01-04T21:25:25.529Z,19.33
2023-01-04T21:28:00.705Z,22.70
2023-01-04T21:30:31.534Z,24.75
2023-01-04T21:33:02.249Z,20.55
2023-01-04T21:35:31.810Z,23.98
2023-01-04T21:38:01.322Z,21.45
2023-01-04T21:40:30.656Z,21.10
2023-01-04T21:42:59.968Z,20.13
2023-01-04T21:45:30.727Z,21.13
2023-01-04T21:47:59.849Z,21.45
2023-01-04T21:50:30.721Z,20.27
2023-01-04T21:53:00.116Z,20.52
2023-01-04T21:55:34.844Z,19.95
2023-01-04T21:58:04.726Z,18.17
2023-01-04T22:00:35.306Z,20.17
2023-01-04T22:03:04.572Z,18.63
2023-01-04T22:05:33.651Z,19.88
2023-01-04T22:08:02.851Z,17.70
2023-01-04T22:10:32.026Z,20.45
2023-01-04T22:13:01.228Z,20.38
2023-01-04T22:15:30.537Z,17.60
2023-01-04T22:18:01.158Z,18.42
2023-01-04T22:20:30.726Z,17.77
2023-01-04T22:23:00.315Z,17.00
2023-01-04T22:25:29.429Z,17.60
2023-01-04T22:27:58.550Z,18.70
2023-01-04T22:30:27.981Z,21.10
2023-01-04T22:32:57.337Z,22.70
2023-01-04T22:35:28.117Z,26.63
2023-01-04T22:37:57.356Z,26.95
2023-01-04T22:40:26.763Z,26.92
2023-01-04T22:42:55.802Z,24.23
2023-01-04T22:45:24.977Z,21.83
2023-01-04T22:47:54.098Z,17.63
2023-01-04T22:50:23.603Z,18.95
2023-01-04T22:52:55.398Z,17.88
2023-01-04T22:55:45.771Z,19.20
2023-01-04T22:58:17.438Z,17.23
2023-01-04T23:00:46.586Z,18.80
2023-01-04T23:03:16.300Z,17.75
2023-01-04T23:05:45.630Z,16.45
2023-01-04T23:08:16.184Z,16.95
2023-01-04T23:10:46.609Z,19.45
2023-01-04T23:13:15.829Z,17.85
2023-01-04T23:15:45.033Z,19.13
2023-01-04T23:18:15.504Z,22.25
2023-01-04T23:20:44.624Z,20.98
2023-01-04T23:23:15.236Z,21.77
2023-01-04T23:25:44.419Z,23.25
2023-01-04T23:28:13.580Z,24.83
2023-01-04T23:30:44.029Z,23.92
2023-01-04T23:33:13.327Z,22.05
2023-01-04T23:35:42.502Z,21.17
2023-01-04T23:38:11.672Z,19.33
2023-01-04T23:40:47.732Z,19.38
2023-01-04T23:43:16.944Z,21.17
2023-01-04T23:45:51.182Z,19.75
2023-01-04T23:48:20.875Z,20.42
2023-01-04T23:50:56.585Z,18.45
2023-01-04T23:53:26.240Z,18.98
2023-01-04T23:56:03.185Z,17.73
2023-01-04T23:58:34.346Z,18.92
